sensor_id;sensor_type;location;lat;lon;timestamp;P1;durP1;ratioP1;P2;durP2;ratioP2
18653;SDS011;9456;47.824;16.228;2022-09-13T05:49:17;4.27;;;3.87;;
18653;SDS011;9456;47.824;16.228;2022-09-13T06:20:09;4.60;;;4.17;;
18653;SDS011;9456;47.824;16.228;2022-09-13T06:22:36;4.30;;;4.00;;
18653;SDS011;9456;47.824;16.228;2022-09-13T06:25:04;4.40;;;4.00;;
18653;SDS011;9456;47.824;16.228;2022-09-13T06:27:32;4.60;;;4.20;;
18653;SDS011;9456;47.824;16.228;2022-09-13T06:29:59;4.40;;;4.00;;
18653;SDS011;9456;47.824;16.228;2022-09-13T06:32:26;6.10;;;4.00;;
18653;SDS011;9456;47.824;16.228;2022-09-13T06:34:53;4.40;;;4.00;;
18653;SDS011;9456;47.824;16.228;2022-09-13T06:37:22;4.03;;;3.73;;
18653;SDS011;9456;47.824;16.228;2022-09-13T06:39:50;4.73;;;3.80;;
18653;SDS011;9456;47.824;16.228;2022-09-13T06:42:17;4.40;;;4.10;;
18653;SDS011;9456;47.824;16.228;2022-09-13T06:44:44;4.60;;;4.17;;
18653;SDS011;9456;47.824;16.228;2022-09-13T06:47:12;4.53;;;4.00;;
18653;SDS011;9456;47.824;16.228;2022-09-13T06:49:40;4.20;;;3.90;;
18653;SDS011;9456;47.824;16.228;2022-09-13T06:52:07;4.40;;;4.00;;
18653;SDS011;9456;47.824;16.228;2022-09-13T06:54:36;5.23;;;4.83;;
18653;SDS011;9456;47.824;16.228;2022-09-13T06:57:03;7.60;;;4.60;;
18653;SDS011;9456;47.824;16.228;2022-09-13T06:59:31;4.77;;;4.37;;
18653;SDS011;9456;47.824;16.228;2022-09-13T07:01:59;4.10;;;3.80;;
18653;SDS011;9456;47.824;16.228;2022-09-13T07:04:26;4.57;;;4.17;;
18653;SDS011;9456;47.824;16.228;2022-09-13T07:06:56;4.53;;;4.23;;
18653;SDS011;9456;47.824;16.228;2022-09-13T07:09:24;4.70;;;4.30;;
18653;SDS011;9456;47.824;16.228;2022-09-13T07:11:54;4.13;;;3.80;;
18653;SDS011;9456;47.824;16.228;2022-09-13T07:14:22;4.90;;;4.60;;
18653;SDS011;9456;47.824;16.228;2022-09-13T07:16:50;4.63;;;3.92;;
18653;SDS011;9456;47.824;16.228;2022-09-13T07:19:18;4.13;;;3.72;;
18653;SDS011;9456;47.824;16.228;2022-09-13T07:21:47;4.32;;;3.80;;
18653;SDS011;9456;47.824;16.228;2022-09-13T07:24:14;4.80;;;4.40;;
18653;SDS011;9456;47.824;16.228;2022-09-13T07:26:42;4.60;;;4.05;;
18653;SDS011;9456;47.824;16.228;2022-09-13T07:29:13;6.13;;;4.63;;
18653;SDS011;9456;47.824;16.228;2022-09-13T07:31:41;6.72;;;4.60;;
18653;SDS011;9456;47.824;16.228;2022-09-13T07:34:11;4.72;;;4.35;;
18653;SDS011;9456;47.824;16.228;2022-09-13T07:36:38;5.47;;;4.53;;
18653;SDS011;9456;47.824;16.228;2022-09-13T07:39:06;4.93;;;4.57;;
18653;SDS011;9456;47.824;16.228;2022-09-13T07:41:33;4.68;;;4.10;;
18653;SDS011;9456;47.824;16.228;2022-09-13T07:44:02;5.20;;;4.63;;
18653;SDS011;9456;47.824;16.228;2022-09-13T07:46:32;5.15;;;4.65;;
18653;SDS011;9456;47.824;16.228;2022-09-13T07:49:01;4.60;;;4.20;;
18653;SDS011;9456;47.824;16.228;2022-09-13T07:51:29;5.55;;;3.88;;
18653;SDS011;9456;47.824;16.228;2022-09-13T07:53:57;5.57;;;4.65;;
18653;SDS011;9456;47.824;16.228;2022-09-13T07:56:25;6.25;;;4.20;;
18653;SDS011;9456;47.824;16.228;2022-09-13T07:58:53;5.10;;;4.60;;
18653;SDS011;9456;47.824;16.228;2022-09-13T08:01:21;4.28;;;3.97;;
18653;SDS011;9456;47.824;16.228;2022-09-13T08:03:51;4.93;;;4.43;;
18653;SDS011;9456;47.824;16.228;2022-09-13T08:06:19;4.05;;;3.85;;
18653;SDS011;9456;47.824;16.228;2022-09-13T08:08:46;4.00;;;3.60;;
18653;SDS011;9456;47.824;16.228;2022-09-13T08:11:15;3.67;;;3.42;;
18653;SDS011;9456;47.824;16.228;2022-09-13T08:13:43;4.10;;;3.80;;
18653;SDS011;9456;47.824;16.228;2022-09-13T08:16:11;4.72;;;4.30;;
18653;SDS011;9456;47.824;16.228;2022-09-13T08:18:42;4.18;;;3.78;;
18653;SDS011;9456;47.824;16.228;2022-09-13T08:21:11;4.00;;;3.20;;
18653;SDS011;9456;47.824;16.228;2022-09-13T08:23:39;3.70;;;3.40;;
18653;SDS011;9456;47.824;16.228;2022-09-13T08:26:07;4.10;;;3.15;;
18653;SDS011;9456;47.824;16.228;2022-09-13T08:28:35;3.42;;;3.22;;
18653;SDS011;9456;47.824;16.228;2022-09-13T08:31:04;3.47;;;2.95;;
18653;SDS011;9456;47.824;16.228;2022-09-13T08:33:32;4.05;;;3.60;;
18653;SDS011;9456;47.824;16.228;2022-09-13T08:36:00;3.47;;;3.13;;
18653;SDS011;9456;47.824;16.228;2022-09-13T08:38:29;4.20;;;3.90;;
18653;SDS011;9456;47.824;16.228;2022-09-13T08:40:57;4.18;;;3.03;;
18653;SDS011;9456;47.824;16.228;2022-09-13T08:43:29;3.85;;;3.25;;
18653;SDS011;9456;47.824;16.228;2022-09-13T08:46:00;5.03;;;3.92;;
18653;SDS011;9456;47.824;16.228;2022-09-13T08:48:30;5.13;;;3.58;;
18653;SDS011;9456;47.824;16.228;2022-09-13T08:50:59;4.07;;;3.65;;
18653;SDS011;9456;47.824;16.228;2022-09-13T08:53:29;4.05;;;3.40;;
18653;SDS011;9456;47.824;16.228;2022-09-13T08:56:00;4.10;;;3.65;;
18653;SDS011;9456;47.824;16.228;2022-09-13T08:58:35;3.53;;;3.22;;
18653;SDS011;9456;47.824;16.228;2022-09-13T09:01:06;3.90;;;3.60;;
18653;SDS011;9456;47.824;16.228;2022-09-13T09:03:37;3.40;;;3.10;;
18653;SDS011;9456;47.824;16.228;2022-09-13T09:06:10;4.45;;;3.50;;
18653;SDS011;9456;47.824;16.228;2022-09-13T09:08:41;3.40;;;3.10;;
18653;SDS011;9456;47.824;16.228;2022-09-13T09:11:13;3.35;;;3.15;;
18653;SDS011;9456;47.824;16.228;2022-09-13T09:13:44;3.58;;;3.38;;
18653;SDS011;9456;47.824;16.228;2022-09-13T09:16:19;5.90;;;3.53;;
18653;SDS011;9456;47.824;16.228;2022-09-13T09:18:50;4.07;;;3.22;;
18653;SDS011;9456;47.824;16.228;2022-09-13T09:21:19;3.38;;;3.17;;
18653;SDS011;9456;47.824;16.228;2022-09-13T09:23:49;3.20;;;3.00;;
18653;SDS011;9456;47.824;16.228;2022-09-13T09:26:17;3.35;;;3.15;;
18653;SDS011;9456;47.824;16.228;2022-09-13T09:28:45;3.22;;;3.03;;
18653;SDS011;9456;47.824;16.228;2022-09-13T09:31:14;3.25;;;3.03;;
18653;SDS011;9456;47.824;16.228;2022-09-13T09:33:47;4.25;;;3.20;;
18653;SDS011;9456;47.824;16.228;2022-09-13T09:36:20;3.17;;;2.97;;
18653;SDS011;9456;47.824;16.228;2022-09-13T09:38:51;3.53;;;3.25;;
18653;SDS011;9456;47.824;16.228;2022-09-13T09:41:23;3.58;;;3.28;;
18653;SDS011;9456;47.824;16.228;2022-09-13T09:43:53;6.18;;;3.03;;
18653;SDS011;9456;47.824;16.228;2022-09-13T09:46:23;4.43;;;3.30;;
18653;SDS011;9456;47.824;16.228;2022-09-13T09:48:53;3.10;;;2.90;;
18653;SDS011;9456;47.824;16.228;2022-09-13T09:51:22;3.70;;;3.40;;
18653;SDS011;9456;47.824;16.228;2022-09-13T09:53:53;3.13;;;2.90;;
18653;SDS011;9456;47.824;16.228;2022-09-13T09:56:24;2.70;;;2.50;;
18653;SDS011;9456;47.824;16.228;2022-09-13T09:58:52;2.72;;;2.53;;
18653;SDS011;9456;47.824;16.228;2022-09-13T10:01:21;3.15;;;2.90;;
18653;SDS011;9456;47.824;16.228;2022-09-13T10:03:50;3.80;;;3.03;;
18653;SDS011;9456;47.824;16.228;2022-09-13T10:06:19;2.65;;;2.47;;
18653;SDS011;9456;47.824;16.228;2022-09-13T10:08:51;3.15;;;2.88;;
18653;SDS011;9456;47.824;16.228;2022-09-13T10:11:22;4.13;;;3.05;;
18653;SDS011;9456;47.824;16.228;2022-09-13T10:13:56;3.60;;;2.65;;
18653;SDS011;9456;47.824;16.228;2022-09-13T10:16:25;2.63;;;2.42;;
18653;SDS011;9456;47.824;16.228;2022-09-13T10:18:53;2.80;;;2.60;;
18653;SDS011;9456;47.824;16.228;2022-09-13T10:21:22;3.78;;;2.67;;
18653;SDS011;9456;47.824;16.228;2022-09-13T10:23:50;2.47;;;2.20;;
18653;SDS011;9456;47.824;16.228;2022-09-13T10:26:18;2.47;;;2.22;;
18653;SDS011;9456;47.824;16.228;2022-09-13T10:28:50;2.42;;;2.00;;
18653;SDS011;9456;47.824;16.228;2022-09-13T10:31:20;2.70;;;2.30;;
18653;SDS011;9456;47.824;16.228;2022-09-13T10:33:55;2.28;;;2.17;;
18653;SDS011;9456;47.824;16.228;2022-09-13T10:36:25;2.30;;;2.20;;
18653;SDS011;9456;47.824;16.228;2022-09-13T10:38:56;2.50;;;2.30;;
18653;SDS011;9456;47.824;16.228;2022-09-13T10:41:25;2.20;;;2.10;;
18653;SDS011;9456;47.824;16.228;2022-09-13T10:43:57;2.87;;;2.40;;
18653;SDS011;9456;47.824;16.228;2022-09-13T10:46:25;2.33;;;2.23;;
18653;SDS011;9456;47.824;16.228;2022-09-13T10:48:53;2.70;;;2.47;;
18653;SDS011;9456;47.824;16.228;2022-09-13T10:51:31;2.50;;;2.30;;
18653;SDS011;9456;47.824;16.228;2022-09-13T10:54:08;2.20;;;2.10;;
18653;SDS011;9456;47.824;16.228;2022-09-13T10:56:36;2.20;;;2.10;;
18653;SDS011;9456;47.824;16.228;2022-09-13T10:59:15;2.90;;;2.00;;
18653;SDS011;9456;47.824;16.228;2022-09-13T11:01:43;2.03;;;1.93;;
18653;SDS011;9456;47.824;16.228;2022-09-13T11:04:28;3.00;;;2.30;;
18653;SDS011;9456;47.824;16.228;2022-09-13T11:07:05;2.80;;;2.60;;
18653;SDS011;9456;47.824;16.228;2022-09-13T11:09:38;2.60;;;2.40;;
18653;SDS011;9456;47.824;16.228;2022-09-13T11:12:10;2.20;;;2.10;;
18653;SDS011;9456;47.824;16.228;2022-09-13T11:14:47;2.27;;;2.17;;
18653;SDS011;9456;47.824;16.228;2022-09-13T11:17:19;2.57;;;2.40;;
18653;SDS011;9456;47.824;16.228;2022-09-13T11:19:58;2.17;;;2.07;;
18653;SDS011;9456;47.824;16.228;2022-09-13T11:22:37;2.57;;;2.40;;
18653;SDS011;9456;47.824;16.228;2022-09-13T11:25:16;3.07;;;2.23;;
18653;SDS011;9456;47.824;16.228;2022-09-13T11:27:53;2.40;;;2.30;;
18653;SDS011;9456;47.824;16.228;2022-09-13T11:30:24;2.10;;;2.00;;
18653;SDS011;9456;47.824;16.228;2022-09-13T11:33:00;2.10;;;2.00;;
18653;SDS011;9456;47.824;16.228;2022-09-13T11:35:46;2.50;;;2.30;;
18653;SDS011;9456;47.824;16.228;2022-09-13T11:38:19;2.87;;;2.00;;
18653;SDS011;9456;47.824;16.228;2022-09-13T11:40:50;3.13;;;2.93;;
18653;SDS011;9456;47.824;16.228;2022-09-13T11:43:23;2.10;;;2.00;;
18653;SDS011;9456;47.824;16.228;2022-09-13T11:45:56;2.27;;;2.13;;
18653;SDS011;9456;47.824;16.228;2022-09-13T11:48:28;4.57;;;2.33;;
18653;SDS011;9456;47.824;16.228;2022-09-13T11:50:57;2.67;;;2.30;;
18653;SDS011;9456;47.824;16.228;2022-09-13T11:53:33;4.53;;;2.80;;
18653;SDS011;9456;47.824;16.228;2022-09-13T11:56:03;2.80;;;2.40;;
18653;SDS011;9456;47.824;16.228;2022-09-13T11:58:33;2.83;;;2.50;;
18653;SDS011;9456;47.824;16.228;2022-09-13T12:01:05;5.13;;;2.70;;
18653;SDS011;9456;47.824;16.228;2022-09-13T12:03:36;4.67;;;2.80;;
18653;SDS011;9456;47.824;16.228;2022-09-13T12:06:05;8.57;;;3.23;;
18653;SDS011;9456;47.824;16.228;2022-09-13T12:08:34;2.50;;;2.30;;
18653;SDS011;9456;47.824;16.228;2022-09-13T12:11:03;2.80;;;2.60;;
18653;SDS011;9456;47.824;16.228;2022-09-13T12:13:35;2.60;;;2.50;;
18653;SDS011;9456;47.824;16.228;2022-09-13T12:16:08;2.80;;;2.60;;
18653;SDS011;9456;47.824;16.228;2022-09-13T12:18:36;2.87;;;2.10;;
18653;SDS011;9456;47.824;16.228;2022-09-13T12:21:06;2.43;;;2.33;;
18653;SDS011;9456;47.824;16.228;2022-09-13T12:23:35;5.03;;;2.10;;
18653;SDS011;9456;47.824;16.228;2022-09-13T12:26:04;2.30;;;2.20;;
18653;SDS011;9456;47.824;16.228;2022-09-13T12:28:33;2.13;;;2.03;;
18653;SDS011;9456;47.824;16.228;2022-09-13T12:31:03;2.93;;;2.40;;
18653;SDS011;9456;47.824;16.228;2022-09-13T12:33:33;2.50;;;2.30;;
18653;SDS011;9456;47.824;16.228;2022-09-13T12:41:38;2.17;;;2.07;;
18653;SDS011;9456;47.824;16.228;2022-09-13T12:44:21;2.63;;;1.93;;
18653;SDS011;9456;47.824;16.228;2022-09-13T12:49:47;3.73;;;2.17;;
18653;SDS011;9456;47.824;16.228;2022-09-13T12:52:23;2.00;;;1.90;;
18653;SDS011;9456;47.824;16.228;2022-09-13T12:54:59;2.00;;;1.90;;
18653;SDS011;9456;47.824;16.228;2022-09-13T12:57:32;2.40;;;2.30;;
18653;SDS011;9456;47.824;16.228;2022-09-13T13:00:09;2.50;;;2.13;;
18653;SDS011;9456;47.824;16.228;2022-09-13T13:02:37;2.00;;;1.90;;
18653;SDS011;9456;47.824;16.228;2022-09-13T13:05:17;2.10;;;1.90;;
18653;SDS011;9456;47.824;16.228;2022-09-13T13:07:49;1.90;;;1.80;;
18653;SDS011;9456;47.824;16.228;2022-09-13T13:10:25;2.97;;;1.97;;
18653;SDS011;9456;47.824;16.228;2022-09-13T13:12:54;2.77;;;2.13;;
18653;SDS011;9456;47.824;16.228;2022-09-13T13:21:06;2.30;;;2.20;;
18653;SDS011;9456;47.824;16.228;2022-09-13T13:23:47;2.20;;;2.00;;
18653;SDS011;9456;47.824;16.228;2022-09-13T13:26:42;2.33;;;2.20;;
18653;SDS011;9456;47.824;16.228;2022-09-13T13:29:11;2.13;;;2.03;;
18653;SDS011;9456;47.824;16.228;2022-09-13T13:31:49;2.30;;;2.20;;
18653;SDS011;9456;47.824;16.228;2022-09-13T13:34:44;3.97;;;2.17;;
18653;SDS011;9456;47.824;16.228;2022-09-13T13:37:29;2.30;;;2.10;;
18653;SDS011;9456;47.824;16.228;2022-09-13T13:45:39;2.27;;;2.10;;
18653;SDS011;9456;47.824;16.228;2022-09-13T13:48:33;2.50;;;2.30;;
18653;SDS011;9456;47.824;16.228;2022-09-13T13:51:13;2.90;;;1.93;;
18653;SDS011;9456;47.824;16.228;2022-09-13T13:53:44;2.93;;;2.20;;
18653;SDS011;9456;47.824;16.228;2022-09-13T13:56:17;3.50;;;2.17;;
18653;SDS011;9456;47.824;16.228;2022-09-13T13:58:45;1.97;;;1.87;;
18653;SDS011;9456;47.824;16.228;2022-09-13T14:01:16;2.20;;;2.03;;
18653;SDS011;9456;47.824;16.228;2022-09-13T14:03:49;3.17;;;2.07;;
18653;SDS011;9456;47.824;16.228;2022-09-13T14:06:18;8.77;;;2.20;;
18653;SDS011;9456;47.824;16.228;2022-09-13T14:08:58;2.20;;;2.10;;
18653;SDS011;9456;47.824;16.228;2022-09-13T14:11:33;2.20;;;2.00;;
18653;SDS011;9456;47.824;16.228;2022-09-13T14:14:09;2.30;;;2.20;;
18653;SDS011;9456;47.824;16.228;2022-09-13T14:16:44;3.43;;;2.33;;
18653;SDS011;9456;47.824;16.228;2022-09-13T14:19:19;1.93;;;1.83;;
18653;SDS011;9456;47.824;16.228;2022-09-13T14:24:36;2.27;;;2.00;;
18653;SDS011;9456;47.824;16.228;2022-09-13T14:27:04;1.90;;;1.70;;
18653;SDS011;9456;47.824;16.228;2022-09-13T14:29:31;2.90;;;2.17;;
18653;SDS011;9456;47.824;16.228;2022-09-13T14:32:02;2.10;;;1.90;;
18653;SDS011;9456;47.824;16.228;2022-09-13T14:34:31;2.30;;;2.10;;
18653;SDS011;9456;47.824;16.228;2022-09-13T14:36:59;2.10;;;1.90;;
18653;SDS011;9456;47.824;16.228;2022-09-13T14:39:27;1.90;;;1.80;;
18653;SDS011;9456;47.824;16.228;2022-09-13T14:42:05;2.03;;;1.90;;
18653;SDS011;9456;47.824;16.228;2022-09-13T14:44:37;2.30;;;2.20;;
18653;SDS011;9456;47.824;16.228;2022-09-13T14:47:11;2.47;;;2.13;;
18653;SDS011;9456;47.824;16.228;2022-09-13T14:49:42;2.10;;;2.00;;
18653;SDS011;9456;47.824;16.228;2022-09-13T14:52:14;6.47;;;2.23;;
18653;SDS011;9456;47.824;16.228;2022-09-13T14:54:42;1.90;;;1.80;;
18653;SDS011;9456;47.824;16.228;2022-09-13T14:57:19;3.87;;;2.20;;
18653;SDS011;9456;47.824;16.228;2022-09-13T14:59:48;2.13;;;1.97;;
18653;SDS011;9456;47.824;16.228;2022-09-13T15:02:17;2.00;;;1.90;;
18653;SDS011;9456;47.824;16.228;2022-09-13T15:04:47;2.00;;;1.80;;
18653;SDS011;9456;47.824;16.228;2022-09-13T15:07:19;2.17;;;1.90;;
18653;SDS011;9456;47.824;16.228;2022-09-13T15:09:47;2.00;;;1.90;;
18653;SDS011;9456;47.824;16.228;2022-09-13T15:12:21;2.30;;;2.10;;
18653;SDS011;9456;47.824;16.228;2022-09-13T15:20:15;2.13;;;1.93;;
18653;SDS011;9456;47.824;16.228;2022-09-13T15:22:42;2.90;;;2.00;;
18653;SDS011;9456;47.824;16.228;2022-09-13T15:25:15;2.80;;;1.90;;
18653;SDS011;9456;47.824;16.228;2022-09-13T15:27:49;4.17;;;2.10;;
18653;SDS011;9456;47.824;16.228;2022-09-13T15:30:21;2.40;;;2.20;;
18653;SDS011;9456;47.824;16.228;2022-09-13T15:32:49;2.50;;;2.17;;
18653;SDS011;9456;47.824;16.228;2022-09-13T15:35:30;2.43;;;2.03;;
18653;SDS011;9456;47.824;16.228;2022-09-13T15:38:00;2.20;;;2.10;;
18653;SDS011;9456;47.824;16.228;2022-09-13T15:40:28;2.20;;;2.10;;
18653;SDS011;9456;47.824;16.228;2022-09-13T15:42:58;2.20;;;2.00;;
18653;SDS011;9456;47.824;16.228;2022-09-13T15:45:26;2.40;;;2.20;;
18653;SDS011;9456;47.824;16.228;2022-09-13T15:47:53;3.13;;;2.10;;
18653;SDS011;9456;47.824;16.228;2022-09-13T15:50:22;2.30;;;2.10;;
18653;SDS011;9456;47.824;16.228;2022-09-13T15:52:51;2.20;;;2.10;;
18653;SDS011;9456;47.824;16.228;2022-09-13T15:55:19;2.70;;;1.83;;
18653;SDS011;9456;47.824;16.228;2022-09-13T15:57:46;4.00;;;2.40;;
18653;SDS011;9456;47.824;16.228;2022-09-13T16:00:16;3.33;;;2.13;;
18653;SDS011;9456;47.824;16.228;2022-09-13T16:02:44;3.30;;;2.30;;
18653;SDS011;9456;47.824;16.228;2022-09-13T16:05:12;5.23;;;2.40;;
18653;SDS011;9456;47.824;16.228;2022-09-13T16:07:39;2.50;;;1.80;;
18653;SDS011;9456;47.824;16.228;2022-09-13T16:10:10;1.87;;;1.77;;
18653;SDS011;9456;47.824;16.228;2022-09-13T16:12:37;2.80;;;2.10;;
18653;SDS011;9456;47.824;16.228;2022-09-13T16:15:05;3.43;;;2.40;;
18653;SDS011;9456;47.824;16.228;2022-09-13T16:17:34;2.67;;;2.23;;
18653;SDS011;9456;47.824;16.228;2022-09-13T16:20:03;2.83;;;2.07;;
18653;SDS011;9456;47.824;16.228;2022-09-13T16:22:31;1.97;;;1.87;;
18653;SDS011;9456;47.824;16.228;2022-09-13T16:24:59;3.53;;;2.17;;
18653;SDS011;9456;47.824;16.228;2022-09-13T16:27:26;2.80;;;2.60;;
18653;SDS011;9456;47.824;16.228;2022-09-13T16:29:54;2.30;;;2.10;;
18653;SDS011;9456;47.824;16.228;2022-09-13T16:32:22;3.10;;;2.30;;
18653;SDS011;9456;47.824;16.228;2022-09-13T16:34:51;7.07;;;1.93;;
18653;SDS011;9456;47.824;16.228;2022-09-13T16:37:18;4.67;;;2.40;;
18653;SDS011;9456;47.824;16.228;2022-09-13T16:39:46;6.27;;;2.17;;
18653;SDS011;9456;47.824;16.228;2022-09-13T16:42:13;3.40;;;2.00;;
18653;SDS011;9456;47.824;16.228;2022-09-13T16:44:41;7.77;;;2.40;;
18653;SDS011;9456;47.824;16.228;2022-09-13T16:47:09;2.60;;;2.40;;
18653;SDS011;9456;47.824;16.228;2022-09-13T16:49:37;3.53;;;2.10;;
18653;SDS011;9456;47.824;16.228;2022-09-13T16:52:05;2.90;;;2.00;;
18653;SDS011;9456;47.824;16.228;2022-09-13T16:54:33;4.57;;;2.13;;
18653;SDS011;9456;47.824;16.228;2022-09-13T16:57:02;5.30;;;2.30;;
18653;SDS011;9456;47.824;16.228;2022-09-13T16:59:29;3.90;;;2.47;;
18653;SDS011;9456;47.824;16.228;2022-09-13T17:01:57;2.60;;;2.30;;
18653;SDS011;9456;47.824;16.228;2022-09-13T17:04:25;3.27;;;2.30;;
18653;SDS011;9456;47.824;16.228;2022-09-13T17:06:52;3.33;;;2.40;;
18653;SDS011;9456;47.824;16.228;2022-09-13T17:09:22;3.57;;;2.30;;
18653;SDS011;9456;47.824;16.228;2022-09-13T17:11:52;2.20;;;2.00;;
18653;SDS011;9456;47.824;16.228;2022-09-13T17:14:19;3.00;;;2.70;;
18653;SDS011;9456;47.824;16.228;2022-09-13T17:16:47;4.00;;;2.30;;
18653;SDS011;9456;47.824;16.228;2022-09-13T17:19:16;5.30;;;2.33;;
18653;SDS011;9456;47.824;16.228;2022-09-13T17:21:44;3.07;;;2.87;;
18653;SDS011;9456;47.824;16.228;2022-09-13T17:24:12;2.33;;;2.23;;
18653;SDS011;9456;47.824;16.228;2022-09-13T17:26:41;5.43;;;2.50;;
18653;SDS011;9456;47.824;16.228;2022-09-13T17:29:09;2.40;;;2.20;;
18653;SDS011;9456;47.824;16.228;2022-09-13T17:31:37;3.17;;;2.20;;
18653;SDS011;9456;47.824;16.228;2022-09-13T17:34:05;2.93;;;2.40;;
18653;SDS011;9456;47.824;16.228;2022-09-13T17:36:32;3.20;;;2.80;;
18653;SDS011;9456;47.824;16.228;2022-09-13T17:39:00;3.20;;;2.90;;
18653;SDS011;9456;47.824;16.228;2022-09-13T17:41:28;4.87;;;3.20;;
18653;SDS011;9456;47.824;16.228;2022-09-13T17:43:57;13.27;;;7.20;;
18653;SDS011;9456;47.824;16.228;2022-09-13T17:46:25;10.47;;;5.90;;
18653;SDS011;9456;47.824;16.228;2022-09-13T17:48:54;9.77;;;6.00;;
18653;SDS011;9456;47.824;16.228;2022-09-13T17:51:23;6.87;;;4.63;;
18653;SDS011;9456;47.824;16.228;2022-09-13T17:53:51;5.13;;;3.60;;
18653;SDS011;9456;47.824;16.228;2022-09-13T17:56:19;3.83;;;3.20;;
18653;SDS011;9456;47.824;16.228;2022-09-13T17:58:47;4.47;;;2.77;;
18653;SDS011;9456;47.824;16.228;2022-09-13T18:01:16;3.30;;;2.53;;
18653;SDS011;9456;47.824;16.228;2022-09-13T18:03:43;3.40;;;2.60;;
18653;SDS011;9456;47.824;16.228;2022-09-13T18:06:11;3.23;;;2.43;;
18653;SDS011;9456;47.824;16.228;2022-09-13T18:08:39;4.47;;;2.50;;
18653;SDS011;9456;47.824;16.228;2022-09-13T18:11:08;6.67;;;2.50;;
18653;SDS011;9456;47.824;16.228;2022-09-13T18:13:37;2.83;;;2.53;;
18653;SDS011;9456;47.824;16.228;2022-09-13T18:16:05;3.70;;;3.40;;
18653;SDS011;9456;47.824;16.228;2022-09-13T18:18:35;5.23;;;4.83;;
18653;SDS011;9456;47.824;16.228;2022-09-13T18:21:03;11.27;;;4.43;;
18653;SDS011;9456;47.824;16.228;2022-09-13T18:23:30;9.30;;;5.17;;
18653;SDS011;9456;47.824;16.228;2022-09-13T18:25:59;8.33;;;4.07;;
18653;SDS011;9456;47.824;16.228;2022-09-13T18:28:26;6.90;;;3.97;;
18653;SDS011;9456;47.824;16.228;2022-09-13T18:30:54;7.20;;;3.63;;
18653;SDS011;9456;47.824;16.228;2022-09-13T18:33:22;5.10;;;3.40;;
18653;SDS011;9456;47.824;16.228;2022-09-13T18:36:10;5.37;;;3.40;;
18653;SDS011;9456;47.824;16.228;2022-09-13T18:38:39;3.97;;;2.90;;
18653;SDS011;9456;47.824;16.228;2022-09-13T18:41:07;4.27;;;3.27;;
18653;SDS011;9456;47.824;16.228;2022-09-13T18:43:36;7.23;;;3.63;;
18653;SDS011;9456;47.824;16.228;2022-09-13T18:46:04;3.97;;;3.57;;
18653;SDS011;9456;47.824;16.228;2022-09-13T18:48:33;4.63;;;3.13;;
18653;SDS011;9456;47.824;16.228;2022-09-13T18:51:02;4.50;;;3.40;;
18653;SDS011;9456;47.824;16.228;2022-09-13T18:53:32;6.30;;;3.00;;
18653;SDS011;9456;47.824;16.228;2022-09-13T18:55:59;4.63;;;3.93;;
18653;SDS011;9456;47.824;16.228;2022-09-13T18:58:28;5.47;;;3.50;;
18653;SDS011;9456;47.824;16.228;2022-09-13T19:00:59;8.67;;;4.07;;
18653;SDS011;9456;47.824;16.228;2022-09-13T19:03:27;5.47;;;3.57;;
18653;SDS011;9456;47.824;16.228;2022-09-13T19:06:07;4.50;;;3.87;;
18653;SDS011;9456;47.824;16.228;2022-09-13T19:08:34;4.20;;;3.90;;
18653;SDS011;9456;47.824;16.228;2022-09-13T19:11:02;10.83;;;3.80;;
18653;SDS011;9456;47.824;16.228;2022-09-13T19:13:30;4.13;;;3.80;;
18653;SDS011;9456;47.824;16.228;2022-09-13T19:15:58;4.50;;;3.77;;
18653;SDS011;9456;47.824;16.228;2022-09-13T19:18:25;4.43;;;3.93;;
18653;SDS011;9456;47.824;16.228;2022-09-13T19:20:59;3.67;;;3.37;;
18653;SDS011;9456;47.824;16.228;2022-09-13T19:23:28;4.60;;;3.50;;
18653;SDS011;9456;47.824;16.228;2022-09-13T19:26:00;3.83;;;3.53;;
18653;SDS011;9456;47.824;16.228;2022-09-13T19:28:28;4.87;;;3.57;;
18653;SDS011;9456;47.824;16.228;2022-09-13T19:31:00;3.20;;;3.00;;
18653;SDS011;9456;47.824;16.228;2022-09-13T19:33:28;3.77;;;3.37;;
18653;SDS011;9456;47.824;16.228;2022-09-13T19:35:59;4.80;;;3.57;;
18653;SDS011;9456;47.824;16.228;2022-09-13T19:38:29;5.63;;;3.23;;
18653;SDS011;9456;47.824;16.228;2022-09-13T19:40:57;3.90;;;3.37;;
18653;SDS011;9456;47.824;16.228;2022-09-13T19:43:27;4.07;;;3.53;;
18653;SDS011;9456;47.824;16.228;2022-09-13T19:45:55;4.47;;;3.63;;
18653;SDS011;9456;47.824;16.228;2022-09-13T19:48:22;4.30;;;3.87;;
18653;SDS011;9456;47.824;16.228;2022-09-13T19:50:50;4.87;;;4.20;;
18653;SDS011;9456;47.824;16.228;2022-09-13T19:53:17;4.80;;;4.40;;
18653;SDS011;9456;47.824;16.228;2022-09-13T19:55:46;5.10;;;4.20;;
18653;SDS011;9456;47.824;16.228;2022-09-13T19:58:14;4.60;;;4.20;;
18653;SDS011;9456;47.824;16.228;2022-09-13T20:00:42;4.23;;;3.60;;
18653;SDS011;9456;47.824;16.228;2022-09-13T20:03:10;3.60;;;3.30;;
18653;SDS011;9456;47.824;16.228;2022-09-13T20:05:38;4.80;;;3.83;;
18653;SDS011;9456;47.824;16.228;2022-09-13T20:08:05;5.70;;;3.93;;
18653;SDS011;9456;47.824;16.228;2022-09-13T20:10:32;3.90;;;3.60;;
18653;SDS011;9456;47.824;16.228;2022-09-13T20:13:01;4.40;;;4.00;;
18653;SDS011;9456;47.824;16.228;2022-09-13T20:15:29;4.40;;;3.67;;
18653;SDS011;9456;47.824;16.228;2022-09-13T20:17:57;6.03;;;4.00;;
18653;SDS011;9456;47.824;16.228;2022-09-13T20:20:25;5.83;;;4.00;;
18653;SDS011;9456;47.824;16.228;2022-09-13T20:22:52;4.20;;;3.80;;
18653;SDS011;9456;47.824;16.228;2022-09-13T20:25:19;6.43;;;3.60;;
18653;SDS011;9456;47.824;16.228;2022-09-13T20:27:47;4.10;;;3.80;;
18653;SDS011;9456;47.824;16.228;2022-09-13T20:30:16;4.73;;;4.27;;
18653;SDS011;9456;47.824;16.228;2022-09-13T20:32:44;4.70;;;4.20;;
18653;SDS011;9456;47.824;16.228;2022-09-13T20:35:11;4.70;;;3.90;;
18653;SDS011;9456;47.824;16.228;2022-09-13T20:37:40;4.10;;;3.80;;
18653;SDS011;9456;47.824;16.228;2022-09-13T20:40:10;4.47;;;4.13;;
18653;SDS011;9456;47.824;16.228;2022-09-13T20:42:38;6.03;;;4.00;;
18653;SDS011;9456;47.824;16.228;2022-09-13T20:45:05;5.50;;;3.87;;
18653;SDS011;9456;47.824;16.228;2022-09-13T20:47:34;4.80;;;3.93;;
18653;SDS011;9456;47.824;16.228;2022-09-13T20:50:01;4.53;;;4.13;;
18653;SDS011;9456;47.824;16.228;2022-09-13T20:52:29;5.20;;;4.17;;
18653;SDS011;9456;47.824;16.228;2022-09-13T20:54:57;6.03;;;3.90;;
18653;SDS011;9456;47.824;16.228;2022-09-13T20:57:24;4.30;;;3.83;;
18653;SDS011;9456;47.824;16.228;2022-09-13T20:59:52;4.00;;;3.70;;
18653;SDS011;9456;47.824;16.228;2022-09-13T21:02:19;6.57;;;3.90;;
18653;SDS011;9456;47.824;16.228;2022-09-13T21:04:48;3.87;;;3.57;;
18653;SDS011;9456;47.824;16.228;2022-09-13T21:07:16;5.67;;;4.10;;
18653;SDS011;9456;47.824;16.228;2022-09-13T21:10:00;4.40;;;3.90;;
18653;SDS011;9456;47.824;16.228;2022-09-13T21:12:29;4.13;;;3.83;;
18653;SDS011;9456;47.824;16.228;2022-09-13T21:14:57;4.03;;;3.63;;
18653;SDS011;9456;47.824;16.228;2022-09-13T21:17:24;5.13;;;4.63;;
18653;SDS011;9456;47.824;16.228;2022-09-13T21:19:54;4.07;;;3.77;;
18653;SDS011;9456;47.824;16.228;2022-09-13T21:22:23;4.33;;;3.93;;
18653;SDS011;9456;47.824;16.228;2022-09-13T21:24:51;4.93;;;4.43;;
18653;SDS011;9456;47.824;16.228;2022-09-13T21:27:18;4.40;;;4.00;;
18653;SDS011;9456;47.824;16.228;2022-09-13T21:29:46;4.90;;;4.50;;
18653;SDS011;9456;47.824;16.228;2022-09-13T21:32:14;4.70;;;4.30;;
18653;SDS011;9456;47.824;16.228;2022-09-13T21:34:41;6.87;;;4.23;;
18653;SDS011;9456;47.824;16.228;2022-09-13T21:37:11;4.37;;;3.97;;
18653;SDS011;9456;47.824;16.228;2022-09-13T21:39:38;5.03;;;4.40;;
18653;SDS011;9456;47.824;16.228;2022-09-13T21:42:05;4.90;;;4.50;;
18653;SDS011;9456;47.824;16.228;2022-09-13T21:44:33;6.33;;;4.27;;
18653;SDS011;9456;47.824;16.228;2022-09-13T21:47:02;6.20;;;4.27;;
18653;SDS011;9456;47.824;16.228;2022-09-13T21:49:30;5.83;;;4.77;;